Time;durP1;ratioP1;P1;durP2;ratioP2;P2;SDS_P1;SDS_P2;PMS_P1;PMS_P2;Temp;Humidity;BMP_temperature;BMP_pressure;BME280_temperature;BME280_humidity;BME280_pressure;Samples;Min_cycle;Max_cycle;Signal;HPM_P1;HPM_P2
2023/06/23 04:19:25;;;;;;;23.30;17.95;;;;;;;22.91;100.00;100173.03;5556992;32;271107;-84
2023/06/23 04:22:30;;;;;;;19.13;15.77;;;;;;;23.04;100.00;100171.72;5541917;32;33552;-84
2023/06/23 04:25:39;;;;;;;18.90;15.60;;;;;;;23.22;100.00;100171.59;5526568;32;34499;-84
2023/06/23 04:28:45;;;;;;;18.08;15.07;;;;;;;23.39;100.00;100177.97;5526502;32;34455;-84
2023/06/23 04:31:56;;;;;;;20.10;15.25;;;;;;;23.59;100.00;100169.53;5526408;32;33846;-84
2023/06/23 04:35:03;;;;;;;17.80;14.43;;;;;;;23.85;100.00;100165.81;5526797;32;33796;-84
2023/06/23 04:38:11;;;;;;;15.43;13.65;;;;;;;24.13;100.00;100169.06;5530945;32;34537;-84
2023/06/23 04:41:19;;;;;;;17.75;13.20;;;;;;;24.26;100.00;100175.81;5553901;32;34208;-87
2023/06/23 04:44:28;;;;;;;15.95;13.07;;;;;;;24.36;100.00;100176.50;5550940;32;35124;-89
2023/06/23 04:47:38;;;;;;;18.02;13.23;;;;;;;24.70;100.00;100178.12;5546191;32;33798;-85
2023/06/23 04:50:45;;;;;;;14.77;13.13;;;;;;;24.89;100.00;100165.19;5546428;32;34339;-85
2023/06/23 04:53:56;;;;;;;15.88;12.40;;;;;;;24.94;100.00;100161.94;5548871;32;33685;-84
2023/06/23 04:57:04;;;;;;;17.55;11.88;;;;;;;25.11;100.00;100168.16;5553214;32;34285;-84
2023/06/23 05:00:12;;;;;;;14.35;12.52;;;;;;;25.23;100.00;100163.16;5552955;32;33954;-84
2023/06/23 05:03:23;;;;;;;23.87;12.57;;;;;;;25.46;100.00;100163.19;5547878;32;34665;-85
2023/06/23 05:06:31;;;;;;;13.05;11.55;;;;;;;25.78;100.00;100150.44;5544995;32;34086;-85
2023/06/23 05:09:39;;;;;;;;;;;;;;;25.88;100.00;100154.75;5545414;32;33448;-84
2023/06/23 05:12:48;;;;;;;14.55;12.45;;;;;;;26.09;100.00;100157.62;5545241;32;34478;-84
2023/06/23 05:15:55;;;;;;;;;;;;;;;26.15;100.00;100168.81;5547223;32;34527;-86
2023/06/23 05:19:11;;;;;;;14.57;12.32;;;;;;;26.04;100.00;100161.94;5540715;32;33844;-85
2023/06/23 05:22:19;;;;;;;14.02;10.88;;;;;;;26.73;100.00;100165.50;5528161;32;33982;-85
2023/06/23 05:25:29;;;;;;;12.93;10.93;;;;;;;28.49;93.15;100165.44;5525677;32;33481;-85
2023/06/23 05:28:37;;;;;;;14.13;10.82;;;;;;;29.03;88.58;100161.16;5521548;32;34171;-85
2023/06/23 05:31:43;;;;;;;11.55;10.35;;;;;;;30.83;81.01;100173.47;5524499;32;34448;-86
2023/06/23 05:34:56;;;;;;;12.25;10.18;;;;;;;31.40;72.36;100185.66;5531572;32;33541;-85
2023/06/23 05:38:04;;;;;;;12.40;10.35;;;;;;;31.26;71.78;100173.94;5531894;32;33740;-85
2023/06/23 05:41:21;;;;;;;14.63;10.00;;;;;;;32.18;69.99;100172.66;5531433;32;35188;-85
2023/06/23 05:44:26;;;;;;;12.00;9.93;;;;;;;32.90;66.97;100182.31;5532203;32;35592;-85
2023/06/23 05:47:41;;;;;;;20.23;10.38;;;;;;;32.20;67.67;100175.19;5531667;32;34001;-84
2023/06/23 05:50:50;;;;;;;10.70;9.60;;;;;;;32.64;67.18;100172.47;5512418;32;33481;-84
2023/06/23 05:53:55;;;;;;;16.65;10.07;;;;;;;32.30;67.47;100169.19;5523294;32;34393;-85
2023/06/23 05:57:06;;;;;;;10.32;9.23;;;;;;;32.56;67.14;100164.50;5529195;32;33872;-84
2023/06/23 06:00:18;;;;;;;14.35;10.40;;;;;;;33.17;61.41;100171.00;5532939;32;33824;-85
2023/06/23 06:03:35;;;;;;;15.07;10.35;;;;;;;33.28;61.38;100174.03;5529159;32;33514;-85
2023/06/23 06:06:42;;;;;;;13.55;10.32;;;;;;;33.76;58.95;100169.53;5535194;32;33872;-84
2023/06/23 06:09:52;;;;;;;11.75;9.52;;;;;;;34.38;53.86;100159.19;5528489;32;34275;-84
2023/06/23 06:13:00;;;;;;;11.80;10.27;;;;;;;33.51;53.38;100154.06;5521503;32;33614;-84
2023/06/23 06:16:10;;;;;;;13.57;9.70;;;;;;;35.01;48.91;100148.44;5526047;32;33823;-84
2023/06/23 06:19:21;;;;;;;11.50;10.40;;;;;;;35.58;46.47;100143.13;5530958;32;33959;-86
2023/06/23 06:22:43;;;;;;;11.90;10.43;;;;;;;34.52;49.21;100133.09;5516248;32;34224;-85
2023/06/23 06:25:52;;;;;;;;;;;;;;;35.00;48.51;100132.13;5514947;32;34760;-86
2023/06/23 06:28:58;;;;;;;13.68;10.30;;;;;;;34.28;49.91;100132.25;5516521;32;34091;-89
2023/06/23 06:32:05;;;;;;;14.25;10.43;;;;;;;35.12;47.88;100121.09;5528472;32;33752;-86
2023/06/23 06:35:15;;;;;;;11.57;10.48;;;;;;;33.98;51.10;100130.47;5526928;32;33737;-86
2023/06/23 06:38:21;;;;;;;12.13;10.98;;;;;;;32.72;55.13;100120.00;5521987;32;34468;-86
2023/06/23 06:41:26;;;;;;;12.63;11.30;;;;;;;32.20;57.91;100112.94;5525731;32;32246;-86
2023/06/23 06:44:34;;;;;;;13.95;11.80;;;;;;;31.38;60.92;100122.88;5528377;32;33702;-85
2023/06/23 06:47:44;;;;;;;15.40;12.07;;;;;;;31.10;62.23;100115.00;5528895;32;33784;-86
2023/06/23 06:50:56;;;;;;;17.10;12.50;;;;;;;30.74;63.92;100112.66;5527377;32;33494;-85
2023/06/23 06:54:09;;;;;;;16.10;12.90;;;;;;;30.79;65.18;100112.84;5528209;32;34515;-85
2023/06/23 06:57:24;;;;;;;18.70;11.85;;;;;;;30.44;65.48;100115.03;5517733;32;34038;-85
2023/06/23 07:00:30;;;;;;;21.25;13.05;;;;;;;30.16;68.72;100107.94;5520192;32;34773;-85
2023/06/23 07:03:45;;;;;;;14.68;13.18;;;;;;;30.52;66.20;100096.47;5536036;32;34105;-85
2023/06/23 07:06:54;;;;;;;16.77;13.30;;;;;;;30.34;66.34;100097.19;5527304;32;33739;-85
2023/06/23 07:10:10;;;;;;;15.35;13.55;;;;;;;30.58;66.95;100097.53;5528245;32;33406;-85
2023/06/23 07:13:15;;;;;;;15.32;13.20;;;;;;;31.10;64.30;100107.63;5524219;32;33656;-85
2023/06/23 07:16:33;;;;;;;18.17;14.40;;;;;;;30.89;65.63;100115.13;5526184;32;33864;-85
2023/06/23 07:19:42;;;;;;;17.15;14.43;;;;;;;30.95;64.37;100107.91;5526203;32;34286;-88
2023/06/23 07:22:47;;;;;;;19.25;14.15;;;;;;;30.88;63.53;100107.94;5527311;32;34399;-89
2023/06/23 07:26:07;;;;;;;19.30;15.60;;;;;;;30.77;63.37;100106.72;5527154;32;33607;-85
2023/06/23 07:29:21;;;;;;;18.60;14.80;;;;;;;30.89;63.73;100103.31;5522386;32;33684;-85
2023/06/23 07:32:27;;;;;;;20.08;14.43;;;;;;;30.91;64.50;100104.78;5527571;32;32758;-85
2023/06/23 07:35:49;;;;;;;16.12;14.27;;;;;;;31.24;63.76;100102.06;5531832;32;33998;-85
2023/06/23 07:39:12;;;;;;;16.42;14.27;;;;;;;31.51;62.30;100101.94;5525971;32;33857;-85
2023/06/23 07:42:35;;;;;;;19.85;15.40;;;;;;;31.73;63.20;100103.22;5524355;32;34098;-85
2023/06/23 07:45:38;;;;;;;16.15;14.45;;;;;;;31.98;60.81;100113.34;5527844;32;34247;-85
2023/06/23 07:49:00;;;;;;;17.35;15.13;;;;;;;32.05;59.91;100110.56;5526075;32;32660;-85
2023/06/23 07:52:07;;;;;;;18.35;15.18;;;;;;;32.03;61.22;100095.38;5522588;32;32096;-85
2023/06/23 07:55:26;;;;;;;21.45;15.13;;;;;;;32.06;59.95;100094.91;5528874;32;33987;-85
2023/06/23 07:58:35;;;;;;;24.25;16.40;;;;;;;31.63;62.04;100104.78;5512631;32;33665;-89
2023/06/23 08:01:38;;;;;;;19.87;14.45;;;;;;;32.30;58.83;100103.34;5526177;32;33571;-89
2023/06/23 08:04:45;;;;;;;18.85;14.40;;;;;;;32.69;59.17;100098.50;5528048;32;34528;-90
2023/06/23 08:08:05;;;;;;;22.33;16.00;;;;;;;32.78;59.45;100097.09;5527932;32;33756;-86
2023/06/23 08:11:13;;;;;;;20.70;16.37;;;;;;;33.39;57.46;100101.78;5527993;32;34642;-85
2023/06/23 08:14:35;;;;;;;18.02;13.82;;;;;;;32.75;57.03;100092.09;5507989;32;33963;-86
2023/06/23 08:17:38;;;;;;;18.87;15.77;;;;;;;33.74;58.88;100098.28;5517992;32;33550;-86
2023/06/23 08:20:43;;;;;;;18.73;15.20;;;;;;;33.93;53.00;100100.09;5520785;32;33472;-85
2023/06/23 08:23:54;;;;;;;26.02;15.98;;;;;;;34.24;56.25;100095.31;5528553;32;33727;-86
2023/06/23 08:27:14;;;;;;;16.85;15.13;;;;;;;34.38;51.85;100087.59;5528158;32;33818;-85
2023/06/23 08:30:37;;;;;;;18.25;15.30;;;;;;;35.23;53.60;100100.09;5526187;32;33746;-85
2023/06/23 08:33:58;;;;;;;20.23;15.90;;;;;;;35.25;50.17;100101.50;5527129;32;34103;-85
2023/06/23 08:37:11;;;;;;;25.80;15.70;;;;;;;35.13;50.08;100090.53;5527844;32;34583;-85
2023/06/23 08:40:34;;;;;;;18.42;16.52;;;;;;;35.61;48.35;100093.03;5526100;32;33753;-89
2023/06/23 08:44:00;;;;;;;20.90;14.95;;;;;;;34.53;49.32;100082.44;5527153;32;33765;-85
2023/06/23 08:47:12;;;;;;;16.92;14.07;;;;;;;35.59;48.62;100082.25;5526065;32;34638;-85
2023/06/23 08:50:36;;;;;;;17.62;14.75;;;;;;;36.21;46.29;100092.56;5510132;32;33619;-84
2023/06/23 08:54:00;;;;;;;21.05;15.85;;;;;;;36.33;46.75;100096.03;5527757;32;34562;-83
2023/06/23 08:57:04;;;;;;;18.00;14.93;;;;;;;36.57;46.00;100097.69;5528318;32;34196;-84
2023/06/23 09:00:09;;;;;;;17.77;14.90;;;;;;;37.09;46.55;100093.66;5529968;32;33938;-84
2023/06/23 09:03:27;;;;;;;20.30;16.27;;;;;;;37.18;45.70;100099.53;5531756;32;33642;-84
2023/06/23 09:06:35;;;;;;;23.50;15.80;;;;;;;37.55;43.79;100098.75;5537563;32;33809;-83
2023/06/23 09:09:45;;;;;;;22.15;15.65;;;;;;;37.29;45.03;100095.78;5533385;32;34129;-84
2023/06/23 09:13:23;;;;;;;19.77;15.80;;;;;;;36.95;45.24;100096.78;5532142;32;34184;-84
2023/06/23 09:16:29;;;;;;;16.17;14.63;;;;;;;37.33;44.15;100101.63;5533854;32;33789;-88
2023/06/23 09:19:33;;;;;;;19.67;15.57;;;;;;;37.73;42.43;100107.78;5529759;32;33717;-85
2023/06/23 09:22:36;;;;;;;25.20;15.50;;;;;;;37.33;43.54;100107.12;5534085;32;33822;-84
2023/06/23 09:25:43;;;;;;;18.85;14.60;;;;;;;37.58;42.79;100106.56;5533094;32;33508;-84
2023/06/23 09:28:48;;;;;;;21.70;15.68;;;;;;;37.66;43.47;100107.19;5533221;32;33453;-84
2023/06/23 09:31:52;;;;;;;20.88;15.32;;;;;;;37.38;44.42;100106.34;5532825;32;33917;-84
2023/06/23 09:34:55;;;;;;;16.73;14.75;;;;;;;38.20;42.56;100105.34;5542353;32;33849;-83
2023/06/23 09:37:58;;;;;;;24.65;15.27;;;;;;;38.76;41.29;100099.22;5545401;32;33991;-84
2023/06/23 09:41:06;;;;;;;18.10;14.90;;;;;;;38.76;41.15;100104.75;5543518;32;34735;-84
2023/06/23 09:44:11;;;;;;;19.35;13.38;;;;;;;38.71;39.69;100103.94;5531216;32;33504;-84
2023/06/23 09:47:16;;;;;;;27.13;15.32;;;;;;;38.58;40.65;100113.56;5530194;32;33759;-84
2023/06/23 09:50:22;;;;;;;24.02;15.68;;;;;;;39.04;40.28;100113.75;5526473;32;33906;-85
2023/06/23 09:53:25;;;;;;;16.98;15.20;;;;;;;39.37;38.94;100110.75;5522475;32;34845;-85
2023/06/23 09:56:27;;;;;;;18.83;15.18;;;;;;;39.38;39.44;100106.00;5516621;32;34192;-85
2023/06/23 09:59:30;;;;;;;21.02;14.13;;;;;;;36.88;42.86;100117.44;5510837;32;33495;-84
2023/06/23 10:02:33;;;;;;;26.77;15.13;;;;;;;36.98;44.20;100117.56;5510748;32;33525;-84
2023/06/23 10:05:38;;;;;;;19.30;15.73;;;;;;;38.29;41.01;100117.56;5511239;32;34623;-85
2023/06/23 10:08:40;;;;;;;18.58;15.27;;;;;;;36.50;44.45;100118.06;5528749;32;34756;-84
2023/06/23 10:11:43;;;;;;;23.75;15.48;;;;;;;37.03;41.99;100125.06;5528485;32;34161;-84
2023/06/23 10:14:47;;;;;;;18.20;14.55;;;;;;;37.68;43.05;100113.28;5523556;32;33547;-85
2023/06/23 10:17:50;;;;;;;22.92;14.20;;;;;;;37.24;43.18;100104.00;5527729;32;33558;-85
2023/06/23 10:20:54;;;;;;;19.45;16.33;;;;;;;37.90;43.06;100107.63;5527991;32;34241;-85
2023/06/23 10:24:04;;;;;;;21.77;15.68;;;;;;;36.91;44.05;100101.16;5528255;32;34066;-85
2023/06/23 10:27:10;;;;;;;22.20;16.25;;;;;;;37.38;44.60;100100.81;5515379;32;34261;-85
2023/06/23 10:30:15;;;;;;;20.48;15.65;;;;;;;38.20;41.23;100106.16;5525044;32;34274;-85
2023/06/23 10:33:20;;;;;;;20.30;15.65;;;;;;;38.60;42.19;100111.37;5524741;32;33193;-86
2023/06/23 10:36:24;;;;;;;20.02;16.23;;;;;;;37.21;43.21;100105.37;5517782;32;33187;-86
2023/06/23 10:39:31;;;;;;;21.50;16.60;;;;;;;36.61;45.37;100097.00;5517076;32;33776;-85
2023/06/23 10:42:35;;;;;;;20.00;16.00;;;;;;;35.12;50.90;100101.78;5528251;32;34306;-85
2023/06/23 10:45:37;;;;;;;20.58;16.90;;;;;;;34.17;53.00;100100.12;5523232;32;33851;-85
2023/06/23 10:48:42;;;;;;;20.15;16.27;;;;;;;33.64;55.45;100097.19;5527853;32;34011;-86
2023/06/23 10:51:45;;;;;;;23.20;17.60;;;;;;;33.76;54.23;100094.44;5525096;32;33849;-86
2023/06/23 10:54:49;;;;;;;21.87;17.45;;;;;;;34.16;55.11;100087.41;5520220;32;33395;-85
2023/06/23 10:58:28;;;;;;;23.52;17.52;;;;;;;34.41;53.44;100089.88;5527260;32;33982;-86
2023/06/23 11:01:30;;;;;;;22.05;16.60;;;;;;;33.68;52.54;100082.72;5441330;32;34762;-86
2023/06/23 11:04:38;;;;;;;21.20;16.45;;;;;;;34.91;50.92;100074.69;5443537;32;34290;-86
2023/06/23 11:08:03;;;;;;;22.25;16.75;;;;;;;36.69;45.85;100068.03;5448506;32;33714;-85
2023/06/23 11:11:08;;;;;;;25.90;16.60;;;;;;;37.63;43.08;100078.09;5441475;32;33733;-85
2023/06/23 11:14:14;;;;;;;21.55;16.85;;;;;;;37.43;43.90;100073.22;5447019;32;34708;-85
2023/06/23 11:17:20;;;;;;;21.42;16.90;;;;;;;36.55;44.29;100064.84;5445405;32;33341;-85
2023/06/23 11:20:23;;;;;;;23.80;17.70;;;;;;;36.32;45.65;100061.25;5444482;32;33578;-85
2023/06/23 11:23:25;;;;;;;21.87;16.58;;;;;;;35.57;49.50;100055.97;5448130;32;34461;-86
2023/06/23 11:26:29;;;;;;;23.48;17.37;;;;;;;35.11;47.85;100059.62;5448351;32;34602;-87
2023/06/23 11:29:32;;;;;;;21.90;17.20;;;;;;;34.50;49.47;100055.38;5440055;32;33466;-85
2023/06/23 11:32:35;;;;;;;20.40;16.12;;;;;;;34.76;50.57;100044.91;5431983;32;33749;-85
2023/06/23 11:35:39;;;;;;;21.90;16.80;;;;;;;35.16;48.56;100045.09;5479891;32;33471;-85
2023/06/23 11:38:44;;;;;;;22.35;16.83;;;;;;;35.10;49.59;100043.34;5514366;32;33851;-85
2023/06/23 11:41:46;;;;;;;21.75;16.87;;;;;;;35.81;47.88;100051.16;5527745;32;34717;-85
2023/06/23 11:44:53;;;;;;;20.10;16.23;;;;;;;36.08;48.79;100038.53;5526372;32;33935;-86
2023/06/23 11:47:56;;;;;;;19.80;16.77;;;;;;;36.80;45.31;100047.72;5515830;32;34378;-85
2023/06/23 11:50:59;;;;;;;20.27;16.23;;;;;;;36.64;44.70;100041.22;5524617;32;33492;-85
2023/06/23 11:54:02;;;;;;;25.73;16.83;;;;;;;36.26;45.91;100038.25;5531545;32;34408;-86
2023/06/23 11:57:06;;;;;;;21.37;16.45;;;;;;;36.57;46.21;100031.41;5526939;32;33760;-86
2023/06/23 12:00:11;;;;;;;22.65;16.77;;;;;;;35.74;49.22;100028.41;5525938;32;33760;-87
2023/06/23 12:03:16;;;;;;;22.73;17.55;;;;;;;35.70;50.14;100030.00;5524666;32;34107;-87
2023/06/23 12:06:19;;;;;;;22.70;16.67;;;;;;;35.83;49.62;100037.06;5524103;32;33471;-86
2023/06/23 12:09:22;;;;;;;21.15;16.90;;;;;;;35.88;51.47;100020.59;5523687;32;34594;-86
2023/06/23 12:12:25;;;;;;;19.48;17.35;;;;;;;35.35;51.61;100015.38;5525711;32;33298;-85
2023/06/23 12:15:29;;;;;;;20.48;17.33;;;;;;;34.60;54.51;100004.41;5521149;32;33407;-85
2023/06/23 12:18:32;;;;;;;24.27;17.55;;;;;;;33.34;57.36;100016.44;5519134;32;34493;-86
2023/06/23 12:21:40;;;;;;;18.70;16.70;;;;;;;34.18;56.10;100008.22;5527945;32;33764;-85
2023/06/23 12:24:43;;;;;;;19.15;17.05;;;;;;;35.22;52.99;99994.50;5527728;32;33928;-90
2023/06/23 12:27:59;;;;;;;21.87;17.10;;;;;;;35.17;52.90;99992.50;5527786;32;34012;-89
2023/06/23 12:31:04;;;;;;;22.48;17.37;;;;;;;34.83;53.85;99984.16;5520487;32;34800;-85
2023/06/23 12:34:10;;;;;;;22.42;16.98;;;;;;;34.65;53.62;99983.28;5515197;32;33550;-86
2023/06/23 12:37:14;;;;;;;22.50;16.42;;;;;;;33.85;55.47;99975.56;5520925;32;33775;-86
2023/06/23 12:40:31;;;;;;;24.25;16.55;;;;;;;34.58;54.06;99987.28;5524785;32;33476;-86
2023/06/23 12:43:33;;;;;;;22.35;16.52;;;;;;;34.63;54.04;99979.94;5529300;32;33794;-86
2023/06/23 12:46:37;;;;;;;26.30;16.77;;;;;;;35.23;51.53;99985.13;5527091;32;33857;-86
2023/06/23 12:49:43;;;;;;;22.80;15.85;;;;;;;35.59;51.95;99982.97;5528964;32;33166;-86
2023/06/23 12:52:46;;;;;;;20.83;15.57;;;;;;;35.43;54.22;99986.53;5522779;32;34156;-86
2023/06/23 12:55:48;;;;;;;20.60;15.95;;;;;;;34.62;52.97;99981.03;5529529;32;34887;-85
2023/06/23 12:58:51;;;;;;;21.12;15.98;;;;;;;33.94;55.89;99977.97;5530493;32;33442;-85
2023/06/23 13:01:55;;;;;;;22.10;16.80;;;;;;;33.74;56.04;99976.44;5530777;32;33787;-87
2023/06/23 13:04:58;;;;;;;22.40;15.85;;;;;;;32.91;60.11;99977.16;5521752;32;32769;-85
2023/06/23 13:08:00;;;;;;;21.92;16.67;;;;;;;33.21;61.41;99968.03;5531240;32;34528;-86
2023/06/23 13:11:03;;;;;;;19.98;16.85;;;;;;;33.86;59.73;99969.00;5531795;32;34470;-86
2023/06/23 13:14:06;;;;;;;23.30;15.68;;;;;;;34.30;56.61;99983.41;5531739;32;34253;-86
2023/06/23 13:17:09;;;;;;;27.25;16.95;;;;;;;34.30;56.24;99980.66;5528277;32;33574;-86
2023/06/23 13:20:11;;;;;;;21.10;16.75;;;;;;;33.88;58.39;99979.75;5529940;32;33849;-86
2023/06/23 13:23:17;;;;;;;22.23;16.65;;;;;;;33.63;58.68;99982.78;5529317;32;34381;-86
2023/06/23 13:26:20;;;;;;;23.90;16.10;;;;;;;33.16;61.74;99974.25;5527805;32;33849;-85
2023/06/23 13:29:23;;;;;;;20.17;15.85;;;;;;;33.27;59.35;99971.75;5524766;32;33543;-86
2023/06/23 13:32:25;;;;;;;22.83;16.23;;;;;;;33.38;60.06;99973.66;5529278;32;34830;-86
2023/06/23 13:35:28;;;;;;;19.83;15.32;;;;;;;33.35;60.67;99971.41;5522302;32;33725;-87
2023/06/23 13:38:31;;;;;;;22.23;15.70;;;;;;;33.47;61.60;99985.97;5529730;32;33654;-87
2023/06/23 13:41:34;;;;;;;26.15;15.65;;;;;;;33.47;59.39;99985.13;5528070;32;34128;-86
2023/06/23 13:44:37;;;;;;;21.20;15.25;;;;;;;33.52;61.55;99992.72;5524163;32;34142;-87
2023/06/23 13:47:41;;;;;;;24.55;16.00;;;;;;;33.72;58.91;99984.94;5520417;32;33934;-86
2023/06/23 13:50:44;;;;;;;20.88;14.52;;;;;;;33.41;58.21;99995.19;5530164;32;33596;-86
2023/06/23 13:53:46;;;;;;;18.40;14.95;;;;;;;32.56;60.62;100002.56;5529775;32;34617;-86
2023/06/23 13:56:49;;;;;;;19.10;13.90;;;;;;;32.69;61.60;100007.91;5529183;32;33730;-86
2023/06/23 13:59:52;;;;;;;15.93;13.32;;;;;;;32.64;61.36;99991.28;5529314;32;33800;-86
2023/06/23 14:02:55;;;;;;;18.15;13.05;;;;;;;32.41;62.23;99990.09;5529371;32;34987;-86
2023/06/23 14:05:59;;;;;;;17.85;12.20;;;;;;;32.70;60.09;99997.72;5529426;32;33734;-85
2023/06/23 14:09:03;;;;;;;17.42;12.25;;;;;;;32.33;60.28;99991.22;5529513;32;34567;-86
2023/06/23 14:12:06;;;;;;;21.52;11.52;;;;;;;32.21;61.04;99990.31;5529913;32;34095;-86
2023/06/23 14:15:09;;;;;;;19.33;11.00;;;;;;;32.66;58.73;99994.63;5536886;32;33511;-86
2023/06/23 14:18:12;;;;;;;19.35;10.68;;;;;;;32.68;60.25;99992.50;5558185;32;33759;-89
2023/06/23 14:21:15;;;;;;;15.73;10.07;;;;;;;32.78;59.05;99989.19;5559907;32;33913;-89
2023/06/23 14:24:18;;;;;;;15.60;9.45;;;;;;;32.78;57.59;99995.50;5560103;32;34727;-90
2023/06/23 14:27:20;;;;;;;13.65;8.45;;;;;;;32.71;57.05;99993.91;5549659;32;33718;-91
2023/06/23 14:30:23;;;;;;;16.62;7.45;;;;;;;32.46;58.45;99993.00;5549425;32;33554;-88
2023/06/23 14:33:26;;;;;;;16.27;7.65;;;;;;;31.89;57.50;100002.28;5549328;32;33989;-87
2023/06/23 14:36:29;;;;;;;13.10;6.75;;;;;;;31.63;57.33;99990.50;5548965;32;34658;-87
2023/06/23 14:39:31;;;;;;;15.23;6.03;;;;;;;31.88;57.90;99995.13;5535928;32;34531;-87
2023/06/23 14:42:34;;;;;;;16.30;6.62;;;;;;;32.01;59.43;99999.63;5513157;32;33801;-87
2023/06/23 14:45:38;;;;;;;15.00;6.68;;;;;;;32.01;58.57;99991.38;5542737;32;34077;-87
2023/06/23 14:48:42;;;;;;;13.80;6.32;;;;;;;32.14;57.65;99993.97;5538114;32;34478;-87
2023/06/23 14:51:45;;;;;;;15.30;6.65;;;;;;;31.99;56.33;99999.00;5536837;32;33826;-86
2023/06/23 14:54:48;;;;;;;15.98;6.62;;;;;;;31.16;55.11;99986.22;5548831;32;34101;-87
2023/06/23 14:57:51;;;;;;;13.00;6.57;;;;;;;31.15;56.20;99979.06;5549004;32;33606;-87
2023/06/23 15:00:53;;;;;;;11.00;5.82;;;;;;;31.25;56.18;99969.50;5547775;32;33778;-87
2023/06/23 15:03:56;;;;;;;10.68;6.03;;;;;;;31.11;56.53;99966.06;5547643;32;33793;-86
2023/06/23 15:06:59;;;;;;;13.02;6.20;;;;;;;30.70;57.02;99960.84;5547308;32;34563;-86
2023/06/23 15:10:02;;;;;;;11.18;5.65;;;;;;;30.73;58.61;99959.56;5547874;32;33876;-87
2023/06/23 15:13:05;;;;;;;11.20;5.72;;;;;;;30.51;59.55;99957.13;5547961;32;33655;-86
2023/06/23 15:16:08;;;;;;;16.05;6.40;;;;;;;30.28;58.41;99947.59;5548085;32;34051;-87
